sensor_id;sensor_type;location;lat;lon;timestamp;P1;durP1;ratioP1;P2;durP2;ratioP2
65189;SDS011;51777;53.570;9.984;2023-03-16T00:00:47;15.75;;;3.17;;
65189;SDS011;51777;53.570;9.984;2023-03-16T00:03:12;10.38;;;2.50;;
65189;SDS011;51777;53.570;9.984;2023-03-16T00:05:51;11.13;;;3.22;;
65189;SDS011;51777;53.570;9.984;2023-03-16T00:08:18;17.83;;;2.75;;
65189;SDS011;51777;53.570;9.984;2023-03-16T00:10:44;12.95;;;3.55;;
65189;SDS011;51777;53.570;9.984;2023-03-16T00:13:13;15.10;;;3.72;;
65189;SDS011;51777;53.570;9.984;2023-03-16T00:15:54;10.50;;;2.80;;
65189;SDS011;51777;53.570;9.984;2023-03-16T00:18:21;13.55;;;3.35;;
65189;SDS011;51777;53.570;9.984;2023-03-16T00:20:58;10.63;;;2.78;;
65189;SDS011;51777;53.570;9.984;2023-03-16T00:23:26;17.45;;;3.38;;
65189;SDS011;51777;53.570;9.984;2023-03-16T00:25:55;10.35;;;3.08;;
65189;SDS011;51777;53.570;9.984;2023-03-16T00:28:22;12.73;;;2.67;;
65189;SDS011;51777;53.570;9.984;2023-03-16T00:30:48;19.38;;;3.05;;
65189;SDS011;51777;53.570;9.984;2023-03-16T00:33:14;11.85;;;2.97;;
65189;SDS011;51777;53.570;9.984;2023-03-16T00:35:39;13.75;;;3.10;;
65189;SDS011;51777;53.570;9.984;2023-03-16T00:38:17;11.40;;;2.83;;
65189;SDS011;51777;53.570;9.984;2023-03-16T00:40:44;11.82;;;2.80;;
65189;SDS011;51777;53.570;9.984;2023-03-16T00:43:10;11.63;;;2.80;;
65189;SDS011;51777;53.570;9.984;2023-03-16T00:45:36;16.70;;;3.03;;
65189;SDS011;51777;53.570;9.984;2023-03-16T00:48:02;12.07;;;3.15;;
65189;SDS011;51777;53.570;9.984;2023-03-16T00:50:28;13.00;;;2.80;;
65189;SDS011;51777;53.570;9.984;2023-03-16T00:52:53;19.73;;;4.45;;
65189;SDS011;51777;53.570;9.984;2023-03-16T00:55:19;14.95;;;3.08;;
65189;SDS011;51777;53.570;9.984;2023-03-16T00:57:45;12.70;;;3.05;;
65189;SDS011;51777;53.570;9.984;2023-03-16T01:00:11;15.13;;;2.88;;
65189;SDS011;51777;53.570;9.984;2023-03-16T01:02:40;15.40;;;3.60;;
65189;SDS011;51777;53.570;9.984;2023-03-16T01:05:06;18.73;;;3.42;;
65189;SDS011;51777;53.570;9.984;2023-03-16T01:07:33;12.48;;;3.28;;
65189;SDS011;51777;53.570;9.984;2023-03-16T01:10:00;14.18;;;3.22;;
65189;SDS011;51777;53.570;9.984;2023-03-16T01:12:26;16.50;;;3.85;;
65189;SDS011;51777;53.570;9.984;2023-03-16T01:14:51;9.27;;;3.17;;
65189;SDS011;51777;53.570;9.984;2023-03-16T01:17:17;17.05;;;3.17;;
65189;SDS011;51777;53.570;9.984;2023-03-16T01:19:43;10.23;;;3.28;;
65189;SDS011;51777;53.570;9.984;2023-03-16T01:22:10;17.20;;;3.40;;
65189;SDS011;51777;53.570;9.984;2023-03-16T01:24:36;12.77;;;3.10;;
65189;SDS011;51777;53.570;9.984;2023-03-16T01:27:03;11.90;;;3.47;;
65189;SDS011;51777;53.570;9.984;2023-03-16T01:29:29;10.82;;;3.83;;
65189;SDS011;51777;53.570;9.984;2023-03-16T01:31:55;14.18;;;3.45;;
65189;SDS011;51777;53.570;9.984;2023-03-16T01:34:21;16.42;;;3.53;;
65189;SDS011;51777;53.570;9.984;2023-03-16T01:36:48;9.60;;;3.20;;
65189;SDS011;51777;53.570;9.984;2023-03-16T01:39:15;12.95;;;3.75;;
65189;SDS011;51777;53.570;9.984;2023-03-16T01:41:41;13.75;;;3.85;;
65189;SDS011;51777;53.570;9.984;2023-03-16T01:44:14;12.63;;;4.15;;
65189;SDS011;51777;53.570;9.984;2023-03-16T01:51:40;10.80;;;3.70;;
65189;SDS011;51777;53.570;9.984;2023-03-16T01:57:03;11.07;;;3.85;;
65189;SDS011;51777;53.570;9.984;2023-03-16T01:59:34;12.77;;;3.55;;
65189;SDS011;51777;53.570;9.984;2023-03-16T02:02:03;10.45;;;3.65;;
65189;SDS011;51777;53.570;9.984;2023-03-16T02:05:13;10.65;;;3.72;;
65189;SDS011;51777;53.570;9.984;2023-03-16T02:07:19;10.88;;;4.13;;
65189;SDS011;51777;53.570;9.984;2023-03-16T02:09:49;14.20;;;4.07;;
65189;SDS011;51777;53.570;9.984;2023-03-16T02:12:17;13.95;;;4.00;;
65189;SDS011;51777;53.570;9.984;2023-03-16T02:14:44;15.73;;;4.25;;
65189;SDS011;51777;53.570;9.984;2023-03-16T02:17:12;11.07;;;4.07;;
65189;SDS011;51777;53.570;9.984;2023-03-16T02:22:43;10.48;;;3.92;;
65189;SDS011;51777;53.570;9.984;2023-03-16T02:25:10;14.65;;;4.30;;
65189;SDS011;51777;53.570;9.984;2023-03-16T02:27:42;11.20;;;4.43;;
65189;SDS011;51777;53.570;9.984;2023-03-16T02:30:16;8.00;;;4.22;;
65189;SDS011;51777;53.570;9.984;2023-03-16T02:32:42;13.10;;;4.30;;
65189;SDS011;51777;53.570;9.984;2023-03-16T02:35:10;11.40;;;3.97;;
65189;SDS011;51777;53.570;9.984;2023-03-16T02:37:40;12.13;;;3.45;;
65189;SDS011;51777;53.570;9.984;2023-03-16T02:40:39;7.70;;;3.53;;
65189;SDS011;51777;53.570;9.984;2023-03-16T02:43:02;10.23;;;3.50;;
65189;SDS011;51777;53.570;9.984;2023-03-16T02:45:57;11.82;;;3.85;;
65189;SDS011;51777;53.570;9.984;2023-03-16T02:51:01;8.65;;;2.95;;
65189;SDS011;51777;53.570;9.984;2023-03-16T02:53:26;6.65;;;3.10;;
65189;SDS011;51777;53.570;9.984;2023-03-16T02:55:52;7.85;;;2.78;;
65189;SDS011;51777;53.570;9.984;2023-03-16T02:58:17;8.80;;;3.00;;
65189;SDS011;51777;53.570;9.984;2023-03-16T03:00:43;7.38;;;3.05;;
65189;SDS011;51777;53.570;9.984;2023-03-16T03:03:10;4.15;;;2.38;;
65189;SDS011;51777;53.570;9.984;2023-03-16T03:05:35;4.78;;;2.45;;
65189;SDS011;51777;53.570;9.984;2023-03-16T03:08:01;11.70;;;2.88;;
65189;SDS011;51777;53.570;9.984;2023-03-16T03:10:27;4.72;;;1.50;;
65189;SDS011;51777;53.570;9.984;2023-03-16T03:12:53;5.68;;;1.58;;
65189;SDS011;51777;53.570;9.984;2023-03-16T03:15:18;4.90;;;2.15;;
65189;SDS011;51777;53.570;9.984;2023-03-16T03:17:44;3.10;;;1.45;;
65189;SDS011;51777;53.570;9.984;2023-03-16T03:20:10;6.70;;;2.92;;
65189;SDS011;51777;53.570;9.984;2023-03-16T03:22:44;11.23;;;2.83;;
65189;SDS011;51777;53.570;9.984;2023-03-16T03:25:13;5.30;;;2.65;;
65189;SDS011;51777;53.570;9.984;2023-03-16T03:27:41;13.30;;;2.67;;
65189;SDS011;51777;53.570;9.984;2023-03-16T03:30:08;6.70;;;2.38;;
65189;SDS011;51777;53.570;9.984;2023-03-16T03:32:35;4.30;;;2.63;;
65189;SDS011;51777;53.570;9.984;2023-03-16T03:35:00;6.63;;;2.35;;
65189;SDS011;51777;53.570;9.984;2023-03-16T03:37:25;6.80;;;2.88;;
65189;SDS011;51777;53.570;9.984;2023-03-16T03:39:51;6.10;;;2.53;;
65189;SDS011;51777;53.570;9.984;2023-03-16T03:42:17;5.13;;;2.67;;
65189;SDS011;51777;53.570;9.984;2023-03-16T03:44:43;6.90;;;3.33;;
65189;SDS011;51777;53.570;9.984;2023-03-16T03:47:08;4.20;;;1.63;;
65189;SDS011;51777;53.570;9.984;2023-03-16T03:49:34;10.10;;;2.80;;
65189;SDS011;51777;53.570;9.984;2023-03-16T03:52:00;6.53;;;2.78;;
65189;SDS011;51777;53.570;9.984;2023-03-16T03:54:28;10.98;;;2.50;;
65189;SDS011;51777;53.570;9.984;2023-03-16T03:56:54;8.80;;;2.55;;
65189;SDS011;51777;53.570;9.984;2023-03-16T03:59:19;6.93;;;2.30;;
65189;SDS011;51777;53.570;9.984;2023-03-16T04:01:46;7.70;;;1.80;;
65189;SDS011;51777;53.570;9.984;2023-03-16T04:04:13;5.30;;;2.58;;
65189;SDS011;51777;53.570;9.984;2023-03-16T04:06:38;6.22;;;2.10;;
65189;SDS011;51777;53.570;9.984;2023-03-16T04:09:03;7.97;;;2.58;;
65189;SDS011;51777;53.570;9.984;2023-03-16T04:11:29;8.43;;;2.80;;
65189;SDS011;51777;53.570;9.984;2023-03-16T04:13:55;9.38;;;2.63;;
65189;SDS011;51777;53.570;9.984;2023-03-16T04:16:20;8.40;;;2.60;;
65189;SDS011;51777;53.570;9.984;2023-03-16T04:18:46;6.43;;;2.67;;
65189;SDS011;51777;53.570;9.984;2023-03-16T04:21:13;7.07;;;2.60;;
65189;SDS011;51777;53.570;9.984;2023-03-16T04:23:40;2.30;;;1.30;;
65189;SDS011;51777;53.570;9.984;2023-03-16T04:26:06;6.32;;;2.97;;
65189;SDS011;51777;53.570;9.984;2023-03-16T04:28:32;7.35;;;2.70;;
65189;SDS011;51777;53.570;9.984;2023-03-16T04:31:04;4.70;;;2.47;;
65189;SDS011;51777;53.570;9.984;2023-03-16T04:33:31;6.50;;;2.28;;
65189;SDS011;51777;53.570;9.984;2023-03-16T04:36:01;5.68;;;2.53;;
65189;SDS011;51777;53.570;9.984;2023-03-16T04:38:27;14.50;;;3.70;;
65189;SDS011;51777;53.570;9.984;2023-03-16T04:40:54;8.73;;;3.45;;
65189;SDS011;51777;53.570;9.984;2023-03-16T04:43:19;13.30;;;3.53;;
65189;SDS011;51777;53.570;9.984;2023-03-16T04:45:44;11.27;;;3.30;;
65189;SDS011;51777;53.570;9.984;2023-03-16T04:48:10;6.45;;;3.00;;
65189;SDS011;51777;53.570;9.984;2023-03-16T04:50:35;11.05;;;3.67;;
65189;SDS011;51777;53.570;9.984;2023-03-16T04:53:01;7.43;;;3.80;;
65189;SDS011;51777;53.570;9.984;2023-03-16T04:55:28;7.55;;;3.30;;
65189;SDS011;51777;53.570;9.984;2023-03-16T04:57:55;9.35;;;2.92;;
65189;SDS011;51777;53.570;9.984;2023-03-16T05:00:20;5.95;;;3.17;;
65189;SDS011;51777;53.570;9.984;2023-03-16T05:02:47;10.40;;;3.45;;
65189;SDS011;51777;53.570;9.984;2023-03-16T05:05:14;6.55;;;3.22;;
65189;SDS011;51777;53.570;9.984;2023-03-16T05:07:40;10.85;;;3.33;;
65189;SDS011;51777;53.570;9.984;2023-03-16T05:10:07;7.90;;;3.60;;
65189;SDS011;51777;53.570;9.984;2023-03-16T05:12:33;7.22;;;3.20;;
65189;SDS011;51777;53.570;9.984;2023-03-16T05:14:59;9.70;;;3.28;;
65189;SDS011;51777;53.570;9.984;2023-03-16T05:17:24;6.53;;;3.20;;
65189;SDS011;51777;53.570;9.984;2023-03-16T05:19:50;9.27;;;3.38;;
65189;SDS011;51777;53.570;9.984;2023-03-16T05:22:15;7.40;;;3.35;;
65189;SDS011;51777;53.570;9.984;2023-03-16T05:24:41;9.45;;;3.63;;
65189;SDS011;51777;53.570;9.984;2023-03-16T05:27:06;8.23;;;3.35;;
65189;SDS011;51777;53.570;9.984;2023-03-16T05:29:32;10.02;;;3.08;;
65189;SDS011;51777;53.570;9.984;2023-03-16T05:31:58;8.73;;;2.72;;
65189;SDS011;51777;53.570;9.984;2023-03-16T05:34:24;8.85;;;3.10;;
65189;SDS011;51777;53.570;9.984;2023-03-16T05:36:50;6.88;;;2.63;;
65189;SDS011;51777;53.570;9.984;2023-03-16T05:39:16;8.50;;;2.80;;
65189;SDS011;51777;53.570;9.984;2023-03-16T05:41:41;8.52;;;3.00;;
65189;SDS011;51777;53.570;9.984;2023-03-16T05:44:08;10.02;;;2.92;;
65189;SDS011;51777;53.570;9.984;2023-03-16T05:46:33;5.88;;;3.00;;
65189;SDS011;51777;53.570;9.984;2023-03-16T05:48:59;6.82;;;2.90;;
65189;SDS011;51777;53.570;9.984;2023-03-16T05:51:24;5.15;;;2.83;;
65189;SDS011;51777;53.570;9.984;2023-03-16T05:53:53;8.68;;;3.40;;
65189;SDS011;51777;53.570;9.984;2023-03-16T05:56:25;8.18;;;3.30;;
65189;SDS011;51777;53.570;9.984;2023-03-16T05:58:53;10.90;;;3.30;;
65189;SDS011;51777;53.570;9.984;2023-03-16T06:01:20;7.68;;;2.95;;
65189;SDS011;51777;53.570;9.984;2023-03-16T06:03:47;10.20;;;2.92;;
65189;SDS011;51777;53.570;9.984;2023-03-16T06:06:16;8.13;;;2.90;;
65189;SDS011;51777;53.570;9.984;2023-03-16T06:08:46;3.28;;;1.55;;
65189;SDS011;51777;53.570;9.984;2023-03-16T06:11:12;11.25;;;3.40;;
65189;SDS011;51777;53.570;9.984;2023-03-16T06:13:38;9.32;;;3.00;;
65189;SDS011;51777;53.570;9.984;2023-03-16T06:16:03;5.47;;;2.70;;
65189;SDS011;51777;53.570;9.984;2023-03-16T06:18:31;7.82;;;2.90;;
65189;SDS011;51777;53.570;9.984;2023-03-16T06:20:57;12.68;;;3.40;;
65189;SDS011;51777;53.570;9.984;2023-03-16T06:23:23;9.02;;;2.88;;
65189;SDS011;51777;53.570;9.984;2023-03-16T06:25:48;7.60;;;3.15;;
65189;SDS011;51777;53.570;9.984;2023-03-16T06:28:15;8.18;;;3.00;;
65189;SDS011;51777;53.570;9.984;2023-03-16T06:30:40;12.02;;;2.95;;
65189;SDS011;51777;53.570;9.984;2023-03-16T06:33:06;12.00;;;3.30;;
65189;SDS011;51777;53.570;9.984;2023-03-16T06:35:32;20.60;;;3.97;;
65189;SDS011;51777;53.570;9.984;2023-03-16T06:37:58;2.72;;;1.35;;
65189;SDS011;51777;53.570;9.984;2023-03-16T06:40:24;15.20;;;3.17;;
65189;SDS011;51777;53.570;9.984;2023-03-16T06:42:49;18.90;;;3.90;;
65189;SDS011;51777;53.570;9.984;2023-03-16T06:45:15;18.90;;;3.38;;
65189;SDS011;51777;53.570;9.984;2023-03-16T06:47:41;9.52;;;3.40;;
65189;SDS011;51777;53.570;9.984;2023-03-16T06:50:10;15.45;;;2.72;;
65189;SDS011;51777;53.570;9.984;2023-03-16T06:52:35;22.63;;;3.72;;
65189;SDS011;51777;53.570;9.984;2023-03-16T06:55:01;27.27;;;4.03;;
65189;SDS011;51777;53.570;9.984;2023-03-16T06:57:26;20.77;;;3.58;;
65189;SDS011;51777;53.570;9.984;2023-03-16T06:59:52;28.77;;;4.80;;
65189;SDS011;51777;53.570;9.984;2023-03-16T07:02:17;4.22;;;2.05;;
65189;SDS011;51777;53.570;9.984;2023-03-16T07:04:43;18.65;;;3.83;;
65189;SDS011;51777;53.570;9.984;2023-03-16T07:07:09;18.58;;;3.17;;
65189;SDS011;51777;53.570;9.984;2023-03-16T07:09:35;23.75;;;2.95;;
65189;SDS011;51777;53.570;9.984;2023-03-16T07:12:01;7.03;;;2.38;;
65189;SDS011;51777;53.570;9.984;2023-03-16T07:14:27;13.15;;;3.10;;
65189;SDS011;51777;53.570;9.984;2023-03-16T07:16:53;11.00;;;1.83;;
65189;SDS011;51777;53.570;9.984;2023-03-16T07:19:18;20.88;;;3.45;;
65189;SDS011;51777;53.570;9.984;2023-03-16T07:21:44;15.05;;;2.42;;
65189;SDS011;51777;53.570;9.984;2023-03-16T07:24:09;19.67;;;2.70;;
65189;SDS011;51777;53.570;9.984;2023-03-16T07:26:37;12.57;;;2.50;;
65189;SDS011;51777;53.570;9.984;2023-03-16T07:29:02;12.30;;;2.15;;
65189;SDS011;51777;53.570;9.984;2023-03-16T07:31:31;15.38;;;3.10;;
65189;SDS011;51777;53.570;9.984;2023-03-16T07:33:58;19.33;;;3.35;;
65189;SDS011;51777;53.570;9.984;2023-03-16T07:36:24;16.90;;;4.45;;
65189;SDS011;51777;53.570;9.984;2023-03-16T07:38:50;5.95;;;2.35;;
65189;SDS011;51777;53.570;9.984;2023-03-16T07:41:16;16.50;;;3.88;;
65189;SDS011;51777;53.570;9.984;2023-03-16T07:43:41;17.10;;;3.58;;
65189;SDS011;51777;53.570;9.984;2023-03-16T07:46:08;13.07;;;3.58;;
65189;SDS011;51777;53.570;9.984;2023-03-16T07:48:38;21.45;;;4.25;;
65189;SDS011;51777;53.570;9.984;2023-03-16T07:51:07;5.90;;;2.42;;
65189;SDS011;51777;53.570;9.984;2023-03-16T07:53:33;9.15;;;3.17;;
65189;SDS011;51777;53.570;9.984;2023-03-16T07:55:59;13.75;;;3.30;;
65189;SDS011;51777;53.570;9.984;2023-03-16T07:58:25;12.93;;;3.65;;
65189;SDS011;51777;53.570;9.984;2023-03-16T08:00:51;12.95;;;3.05;;
65189;SDS011;51777;53.570;9.984;2023-03-16T08:03:19;17.23;;;3.60;;
65189;SDS011;51777;53.570;9.984;2023-03-16T08:05:45;9.80;;;3.53;;
65189;SDS011;51777;53.570;9.984;2023-03-16T08:08:10;14.35;;;3.00;;
65189;SDS011;51777;53.570;9.984;2023-03-16T08:10:35;20.63;;;3.10;;
65189;SDS011;51777;53.570;9.984;2023-03-16T08:13:01;8.82;;;2.72;;
65189;SDS011;51777;53.570;9.984;2023-03-16T08:15:29;22.23;;;4.25;;
65189;SDS011;51777;53.570;9.984;2023-03-16T08:17:58;11.10;;;3.20;;
65189;SDS011;51777;53.570;9.984;2023-03-16T08:20:24;13.35;;;3.75;;
65189;SDS011;51777;53.570;9.984;2023-03-16T08:22:50;7.40;;;2.30;;
65189;SDS011;51777;53.570;9.984;2023-03-16T08:25:15;11.20;;;3.45;;
65189;SDS011;51777;53.570;9.984;2023-03-16T08:27:43;4.95;;;2.25;;
65189;SDS011;51777;53.570;9.984;2023-03-16T08:30:09;8.88;;;3.13;;
65189;SDS011;51777;53.570;9.984;2023-03-16T08:32:36;12.30;;;3.30;;
65189;SDS011;51777;53.570;9.984;2023-03-16T08:35:04;9.48;;;3.10;;
65189;SDS011;51777;53.570;9.984;2023-03-16T08:37:30;13.82;;;3.45;;
65189;SDS011;51777;53.570;9.984;2023-03-16T08:39:56;14.98;;;3.20;;
65189;SDS011;51777;53.570;9.984;2023-03-16T08:42:24;7.25;;;2.30;;
65189;SDS011;51777;53.570;9.984;2023-03-16T08:44:50;8.23;;;2.25;;
65189;SDS011;51777;53.570;9.984;2023-03-16T08:47:20;8.88;;;2.47;;
65189;SDS011;51777;53.570;9.984;2023-03-16T08:49:47;7.50;;;2.40;;
65189;SDS011;51777;53.570;9.984;2023-03-16T08:52:13;10.07;;;2.38;;
65189;SDS011;51777;53.570;9.984;2023-03-16T08:54:50;11.38;;;2.65;;
65189;SDS011;51777;53.570;9.984;2023-03-16T08:57:15;12.18;;;2.88;;
65189;SDS011;51777;53.570;9.984;2023-03-16T08:59:41;12.25;;;2.90;;
65189;SDS011;51777;53.570;9.984;2023-03-16T09:02:09;6.28;;;2.00;;
65189;SDS011;51777;53.570;9.984;2023-03-16T09:04:37;9.18;;;2.63;;
65189;SDS011;51777;53.570;9.984;2023-03-16T09:07:04;10.02;;;2.72;;
65189;SDS011;51777;53.570;9.984;2023-03-16T09:09:29;14.68;;;2.88;;
65189;SDS011;51777;53.570;9.984;2023-03-16T09:12:03;14.00;;;2.83;;
65189;SDS011;51777;53.570;9.984;2023-03-16T09:16:55;9.68;;;2.60;;
65189;SDS011;51777;53.570;9.984;2023-03-16T09:19:27;12.00;;;2.13;;
65189;SDS011;51777;53.570;9.984;2023-03-16T09:21:56;10.38;;;2.58;;
65189;SDS011;51777;53.570;9.984;2023-03-16T09:24:22;12.88;;;2.40;;
65189;SDS011;51777;53.570;9.984;2023-03-16T09:26:48;15.23;;;2.50;;
65189;SDS011;51777;53.570;9.984;2023-03-16T09:29:16;11.57;;;2.70;;
65189;SDS011;51777;53.570;9.984;2023-03-16T09:31:42;13.73;;;2.60;;
65189;SDS011;51777;53.570;9.984;2023-03-16T09:34:08;17.98;;;2.60;;
65189;SDS011;51777;53.570;9.984;2023-03-16T09:36:34;17.42;;;2.50;;
65189;SDS011;51777;53.570;9.984;2023-03-16T09:39:00;13.23;;;2.33;;
65189;SDS011;51777;53.570;9.984;2023-03-16T09:44:09;6.03;;;2.15;;
65189;SDS011;51777;53.570;9.984;2023-03-16T09:46:44;11.07;;;2.03;;
65189;SDS011;51777;53.570;9.984;2023-03-16T09:49:14;5.18;;;1.75;;
65189;SDS011;51777;53.570;9.984;2023-03-16T09:54:45;5.10;;;2.10;;
65189;SDS011;51777;53.570;9.984;2023-03-16T09:57:26;10.68;;;2.28;;
65189;SDS011;51777;53.570;9.984;2023-03-16T09:59:59;8.18;;;1.63;;
65189;SDS011;51777;53.570;9.984;2023-03-16T10:05:12;13.02;;;1.90;;
65189;SDS011;51777;53.570;9.984;2023-03-16T10:07:51;15.00;;;2.20;;
65189;SDS011;51777;53.570;9.984;2023-03-16T10:12:58;14.77;;;2.15;;
65189;SDS011;51777;53.570;9.984;2023-03-16T10:15:26;11.77;;;1.80;;
65189;SDS011;51777;53.570;9.984;2023-03-16T10:20:45;5.18;;;1.65;;
65189;SDS011;51777;53.570;9.984;2023-03-16T10:23:22;9.48;;;1.38;;
65189;SDS011;51777;53.570;9.984;2023-03-16T10:25:50;7.20;;;1.40;;
65189;SDS011;51777;53.570;9.984;2023-03-16T10:28:18;5.13;;;1.40;;
65189;SDS011;51777;53.570;9.984;2023-03-16T10:30:49;5.25;;;1.23;;
65189;SDS011;51777;53.570;9.984;2023-03-16T10:38:26;6.70;;;1.38;;
65189;SDS011;51777;53.570;9.984;2023-03-16T10:40:52;4.38;;;1.20;;
65189;SDS011;51777;53.570;9.984;2023-03-16T10:43:18;4.18;;;1.15;;
65189;SDS011;51777;53.570;9.984;2023-03-16T10:45:44;3.70;;;1.40;;
65189;SDS011;51777;53.570;9.984;2023-03-16T10:48:14;4.28;;;1.30;;
65189;SDS011;51777;53.570;9.984;2023-03-16T10:50:47;4.45;;;1.15;;
65189;SDS011;51777;53.570;9.984;2023-03-16T10:53:48;11.45;;;1.50;;
65189;SDS011;51777;53.570;9.984;2023-03-16T10:56:09;13.95;;;1.67;;
65189;SDS011;51777;53.570;9.984;2023-03-16T10:58:38;6.55;;;1.02;;
65189;SDS011;51777;53.570;9.984;2023-03-16T11:01:25;5.55;;;1.10;;
65189;SDS011;51777;53.570;9.984;2023-03-16T11:03:53;3.47;;;1.20;;
65189;SDS011;51777;53.570;9.984;2023-03-16T11:06:22;8.75;;;1.48;;
65189;SDS011;51777;53.570;9.984;2023-03-16T11:08:50;5.78;;;1.30;;
65189;SDS011;51777;53.570;9.984;2023-03-16T11:11:28;9.40;;;1.20;;
65189;SDS011;51777;53.570;9.984;2023-03-16T11:13:57;3.05;;;1.08;;
65189;SDS011;51777;53.570;9.984;2023-03-16T11:16:27;3.88;;;1.38;;
65189;SDS011;51777;53.570;9.984;2023-03-16T11:21:55;2.03;;;0.95;;
65189;SDS011;51777;53.570;9.984;2023-03-16T11:27:03;9.98;;;1.58;;
65189;SDS011;51777;53.570;9.984;2023-03-16T11:32:04;5.28;;;1.08;;
65189;SDS011;51777;53.570;9.984;2023-03-16T11:34:37;6.13;;;1.30;;
65189;SDS011;51777;53.570;9.984;2023-03-16T11:40:49;2.08;;;1.20;;
65189;SDS011;51777;53.570;9.984;2023-03-16T11:43:26;3.85;;;1.00;;
65189;SDS011;51777;53.570;9.984;2023-03-16T11:57:01;6.63;;;1.80;;
65189;SDS011;51777;53.570;9.984;2023-03-16T12:16:18;5.20;;;1.35;;
65189;SDS011;51777;53.570;9.984;2023-03-16T12:18:51;5.78;;;0.90;;
65189;SDS011;51777;53.570;9.984;2023-03-16T12:21:25;2.30;;;0.70;;
65189;SDS011;51777;53.570;9.984;2023-03-16T12:23:57;2.05;;;1.00;;
65189;SDS011;51777;53.570;9.984;2023-03-16T12:26:27;6.05;;;1.20;;
65189;SDS011;51777;53.570;9.984;2023-03-16T12:28:56;6.72;;;0.75;;
65189;SDS011;51777;53.570;9.984;2023-03-16T12:37:08;9.00;;;1.67;;
65189;SDS011;51777;53.570;9.984;2023-03-16T12:40:08;6.40;;;1.50;;
65189;SDS011;51777;53.570;9.984;2023-03-16T12:46:13;6.50;;;1.10;;
65189;SDS011;51777;53.570;9.984;2023-03-16T12:48:46;10.70;;;1.25;;
65189;SDS011;51777;53.570;9.984;2023-03-16T12:51:16;8.70;;;1.10;;
65189;SDS011;51777;53.570;9.984;2023-03-16T12:54:00;9.43;;;1.23;;
65189;SDS011;51777;53.570;9.984;2023-03-16T12:58:58;9.20;;;1.30;;
65189;SDS011;51777;53.570;9.984;2023-03-16T13:01:26;5.57;;;1.30;;
65189;SDS011;51777;53.570;9.984;2023-03-16T13:06:32;13.77;;;1.23;;
65189;SDS011;51777;53.570;9.984;2023-03-16T13:09:00;13.43;;;0.95;;
65189;SDS011;51777;53.570;9.984;2023-03-16T13:11:28;6.65;;;2.28;;
65189;SDS011;51777;53.570;9.984;2023-03-16T13:14:06;8.73;;;1.60;;
65189;SDS011;51777;53.570;9.984;2023-03-16T13:16:40;14.73;;;1.70;;
65189;SDS011;51777;53.570;9.984;2023-03-16T13:19:24;3.38;;;1.17;;
65189;SDS011;51777;53.570;9.984;2023-03-16T13:22:05;2.28;;;1.17;;
65189;SDS011;51777;53.570;9.984;2023-03-16T13:24:54;15.18;;;1.75;;
65189;SDS011;51777;53.570;9.984;2023-03-16T13:27:35;7.97;;;2.75;;
65189;SDS011;51777;53.570;9.984;2023-03-16T13:30:17;5.40;;;1.48;;
65189;SDS011;51777;53.570;9.984;2023-03-16T13:32:45;7.32;;;1.38;;
65189;SDS011;51777;53.570;9.984;2023-03-16T13:35:15;2.72;;;0.90;;
65189;SDS011;51777;53.570;9.984;2023-03-16T13:37:42;3.67;;;1.50;;
65189;SDS011;51777;53.570;9.984;2023-03-16T13:40:18;3.97;;;1.13;;
65189;SDS011;51777;53.570;9.984;2023-03-16T13:42:46;20.77;;;1.63;;
65189;SDS011;51777;53.570;9.984;2023-03-16T13:45:23;8.20;;;1.40;;
65189;SDS011;51777;53.570;9.984;2023-03-16T13:47:52;9.27;;;1.42;;
65189;SDS011;51777;53.570;9.984;2023-03-16T13:50:18;5.03;;;0.93;;
65189;SDS011;51777;53.570;9.984;2023-03-16T13:52:52;9.98;;;1.02;;
65189;SDS011;51777;53.570;9.984;2023-03-16T13:55:27;13.68;;;1.50;;
65189;SDS011;51777;53.570;9.984;2023-03-16T13:57:55;3.17;;;1.02;;
65189;SDS011;51777;53.570;9.984;2023-03-16T14:00:22;10.35;;;1.80;;
65189;SDS011;51777;53.570;9.984;2023-03-16T14:02:56;13.05;;;1.52;;
65189;SDS011;51777;53.570;9.984;2023-03-16T14:05:27;12.55;;;1.23;;
65189;SDS011;51777;53.570;9.984;2023-03-16T14:08:03;6.03;;;1.02;;
65189;SDS011;51777;53.570;9.984;2023-03-16T14:10:32;7.13;;;0.82;;
65189;SDS011;51777;53.570;9.984;2023-03-16T14:13:06;3.00;;;0.98;;
65189;SDS011;51777;53.570;9.984;2023-03-16T14:15:35;9.65;;;1.15;;
65189;SDS011;51777;53.570;9.984;2023-03-16T14:18:12;5.25;;;1.02;;
65189;SDS011;51777;53.570;9.984;2023-03-16T14:20:45;11.70;;;1.23;;
65189;SDS011;51777;53.570;9.984;2023-03-16T14:23:16;6.05;;;0.60;;
65189;SDS011;51777;53.570;9.984;2023-03-16T14:25:46;9.40;;;1.00;;
65189;SDS011;51777;53.570;9.984;2023-03-16T14:28:13;3.67;;;1.00;;
65189;SDS011;51777;53.570;9.984;2023-03-16T14:30:50;6.93;;;1.13;;
65189;SDS011;51777;53.570;9.984;2023-03-16T14:33:25;14.90;;;1.45;;
65189;SDS011;51777;53.570;9.984;2023-03-16T14:35:56;6.97;;;1.00;;
65189;SDS011;51777;53.570;9.984;2023-03-16T14:38:31;6.60;;;1.10;;
65189;SDS011;51777;53.570;9.984;2023-03-16T14:41:04;14.38;;;1.85;;
65189;SDS011;51777;53.570;9.984;2023-03-16T14:43:37;5.32;;;1.23;;
65189;SDS011;51777;53.570;9.984;2023-03-16T14:46:05;17.70;;;2.00;;
65189;SDS011;51777;53.570;9.984;2023-03-16T14:48:32;4.05;;;0.90;;
65189;SDS011;51777;53.570;9.984;2023-03-16T14:51:00;18.05;;;1.27;;
65189;SDS011;51777;53.570;9.984;2023-03-16T14:53:28;11.50;;;1.67;;
65189;SDS011;51777;53.570;9.984;2023-03-16T14:55:54;9.73;;;0.90;;
65189;SDS011;51777;53.570;9.984;2023-03-16T14:58:20;5.13;;;1.90;;
65189;SDS011;51777;53.570;9.984;2023-03-16T15:00:46;2.95;;;0.80;;
65189;SDS011;51777;53.570;9.984;2023-03-16T15:03:13;1.92;;;0.73;;
65189;SDS011;51777;53.570;9.984;2023-03-16T15:05:41;3.28;;;0.77;;
65189;SDS011;51777;53.570;9.984;2023-03-16T15:08:17;10.43;;;1.05;;
65189;SDS011;51777;53.570;9.984;2023-03-16T15:10:46;3.88;;;0.85;;
65189;SDS011;51777;53.570;9.984;2023-03-16T15:13:13;4.05;;;0.90;;
65189;SDS011;51777;53.570;9.984;2023-03-16T15:15:58;10.85;;;1.30;;
65189;SDS011;51777;53.570;9.984;2023-03-16T15:18:25;5.20;;;0.90;;
65189;SDS011;51777;53.570;9.984;2023-03-16T15:20:51;1.63;;;0.98;;
65189;SDS011;51777;53.570;9.984;2023-03-16T15:23:17;16.45;;;1.30;;
65189;SDS011;51777;53.570;9.984;2023-03-16T15:25:43;8.93;;;0.90;;
65189;SDS011;51777;53.570;9.984;2023-03-16T15:28:18;9.05;;;1.17;;
65189;SDS011;51777;53.570;9.984;2023-03-16T15:33:14;3.28;;;1.10;;
65189;SDS011;51777;53.570;9.984;2023-03-16T15:35:41;3.30;;;0.65;;
65189;SDS011;51777;53.570;9.984;2023-03-16T15:38:12;4.25;;;0.88;;
65189;SDS011;51777;53.570;9.984;2023-03-16T15:40:40;6.53;;;0.63;;
65189;SDS011;51777;53.570;9.984;2023-03-16T15:43:11;3.42;;;0.65;;
65189;SDS011;51777;53.570;9.984;2023-03-16T15:45:37;7.45;;;1.50;;
65189;SDS011;51777;53.570;9.984;2023-03-16T15:48:02;9.30;;;1.25;;
65189;SDS011;51777;53.570;9.984;2023-03-16T15:50:29;5.68;;;0.60;;
65189;SDS011;51777;53.570;9.984;2023-03-16T15:52:59;4.18;;;1.10;;
65189;SDS011;51777;53.570;9.984;2023-03-16T15:55:47;12.05;;;1.10;;
65189;SDS011;51777;53.570;9.984;2023-03-16T15:58:21;4.13;;;0.82;;
65189;SDS011;51777;53.570;9.984;2023-03-16T16:00:49;3.08;;;1.13;;
65189;SDS011;51777;53.570;9.984;2023-03-16T16:03:19;3.63;;;1.13;;
65189;SDS011;51777;53.570;9.984;2023-03-16T16:05:44;1.70;;;0.90;;
65189;SDS011;51777;53.570;9.984;2023-03-16T16:08:09;7.78;;;1.05;;
65189;SDS011;51777;53.570;9.984;2023-03-16T16:10:35;4.35;;;0.73;;
65189;SDS011;51777;53.570;9.984;2023-03-16T16:13:00;2.88;;;0.70;;
65189;SDS011;51777;53.570;9.984;2023-03-16T16:15:27;5.93;;;1.08;;
65189;SDS011;51777;53.570;9.984;2023-03-16T16:17:56;6.35;;;1.00;;
65189;SDS011;51777;53.570;9.984;2023-03-16T16:20:24;4.25;;;0.68;;